sensor_id;sensor_type;location;lat;lon;timestamp;temperature;humidity
45906;DHT22;31619;49.008;12.106;2023-04-30T00:01:27;12.00;99.90
45906;DHT22;31619;49.008;12.106;2023-04-30T00:03:55;12.00;99.90
45906;DHT22;31619;49.008;12.106;2023-04-30T00:06:21;12.00;99.90
45906;DHT22;31619;49.008;12.106;2023-04-30T00:08:47;12.00;99.90
45906;DHT22;31619;49.008;12.106;2023-04-30T00:11:12;12.00;99.90
45906;DHT22;31619;49.008;12.106;2023-04-30T00:13:51;11.90;99.90
45906;DHT22;31619;49.008;12.106;2023-04-30T00:16:19;11.80;99.90
45906;DHT22;31619;49.008;12.106;2023-04-30T00:18:45;11.80;99.90
45906;DHT22;31619;49.008;12.106;2023-04-30T00:21:18;11.80;99.90
45906;DHT22;31619;49.008;12.106;2023-04-30T00:23:44;11.80;99.90
45906;DHT22;31619;49.008;12.106;2023-04-30T00:26:19;11.80;99.90
45906;DHT22;31619;49.008;12.106;2023-04-30T00:28:44;11.80;99.90
45906;DHT22;31619;49.008;12.106;2023-04-30T00:31:10;11.80;99.90
45906;DHT22;31619;49.008;12.106;2023-04-30T00:33:36;11.70;99.90
45906;DHT22;31619;49.008;12.106;2023-04-30T00:36:11;11.70;99.90
45906;DHT22;31619;49.008;12.106;2023-04-30T00:38:36;11.70;99.90
45906;DHT22;31619;49.008;12.106;2023-04-30T00:41:05;11.70;99.90
45906;DHT22;31619;49.008;12.106;2023-04-30T00:43:30;11.70;99.90
45906;DHT22;31619;49.008;12.106;2023-04-30T00:45:56;11.70;99.90
45906;DHT22;31619;49.008;12.106;2023-04-30T00:48:23;11.70;99.90
45906;DHT22;31619;49.008;12.106;2023-04-30T00:50:50;11.70;99.90
45906;DHT22;31619;49.008;12.106;2023-04-30T00:53:16;11.60;99.90
45906;DHT22;31619;49.008;12.106;2023-04-30T00:55:43;11.60;99.90
45906;DHT22;31619;49.008;12.106;2023-04-30T00:58:21;11.60;99.90
45906;DHT22;31619;49.008;12.106;2023-04-30T01:00:47;11.60;99.90
45906;DHT22;31619;49.008;12.106;2023-04-30T01:03:13;11.60;99.90
45906;DHT22;31619;49.008;12.106;2023-04-30T01:05:39;11.60;99.90
45906;DHT22;31619;49.008;12.106;2023-04-30T01:08:07;11.60;99.90
45906;DHT22;31619;49.008;12.106;2023-04-30T01:10:40;11.50;99.90
45906;DHT22;31619;49.008;12.106;2023-04-30T01:16:29;11.50;99.90
45906;DHT22;31619;49.008;12.106;2023-04-30T01:19:01;11.50;99.90
45906;DHT22;31619;49.008;12.106;2023-04-30T01:21:29;11.50;99.90
45906;DHT22;31619;49.008;12.106;2023-04-30T01:29:26;11.50;99.90
45906;DHT22;31619;49.008;12.106;2023-04-30T01:31:52;11.40;99.90
45906;DHT22;31619;49.008;12.106;2023-04-30T01:34:17;11.40;99.90
45906;DHT22;31619;49.008;12.106;2023-04-30T01:36:54;11.50;99.90
45906;DHT22;31619;49.008;12.106;2023-04-30T01:39:34;11.40;99.90
45906;DHT22;31619;49.008;12.106;2023-04-30T01:42:19;11.50;99.90
45906;DHT22;31619;49.008;12.106;2023-04-30T01:45:31;11.50;99.90
45906;DHT22;31619;49.008;12.106;2023-04-30T01:50:54;11.40;99.90
45906;DHT22;31619;49.008;12.106;2023-04-30T01:53:39;11.40;99.90
45906;DHT22;31619;49.008;12.106;2023-04-30T01:56:31;11.40;99.90
45906;DHT22;31619;49.008;12.106;2023-04-30T01:58:55;11.40;99.90
45906;DHT22;31619;49.008;12.106;2023-04-30T02:01:25;11.40;99.90
45906;DHT22;31619;49.008;12.106;2023-04-30T02:03:51;11.40;99.90
45906;DHT22;31619;49.008;12.106;2023-04-30T02:06:17;11.40;99.90
45906;DHT22;31619;49.008;12.106;2023-04-30T02:08:43;11.30;99.90
45906;DHT22;31619;49.008;12.106;2023-04-30T02:11:08;11.40;99.90
45906;DHT22;31619;49.008;12.106;2023-04-30T02:13:43;11.30;99.90
45906;DHT22;31619;49.008;12.106;2023-04-30T02:16:09;11.30;99.90
45906;DHT22;31619;49.008;12.106;2023-04-30T02:18:35;11.30;99.90
45906;DHT22;31619;49.008;12.106;2023-04-30T02:21:00;11.30;99.90
45906;DHT22;31619;49.008;12.106;2023-04-30T02:23:26;11.30;99.90
45906;DHT22;31619;49.008;12.106;2023-04-30T02:25:51;11.20;99.90
45906;DHT22;31619;49.008;12.106;2023-04-30T02:28:17;11.20;99.90
45906;DHT22;31619;49.008;12.106;2023-04-30T02:30:42;11.20;99.90
45906;DHT22;31619;49.008;12.106;2023-04-30T02:33:08;11.10;99.90
45906;DHT22;31619;49.008;12.106;2023-04-30T02:35:36;11.10;99.90
45906;DHT22;31619;49.008;12.106;2023-04-30T02:38:03;11.10;99.90
45906;DHT22;31619;49.008;12.106;2023-04-30T02:40:28;11.10;99.90
45906;DHT22;31619;49.008;12.106;2023-04-30T02:42:54;11.10;99.90
45906;DHT22;31619;49.008;12.106;2023-04-30T02:45:21;11.10;99.90
45906;DHT22;31619;49.008;12.106;2023-04-30T02:47:46;11.10;99.90
45906;DHT22;31619;49.008;12.106;2023-04-30T02:50:13;11.10;99.90
45906;DHT22;31619;49.008;12.106;2023-04-30T02:52:39;11.10;99.90
45906;DHT22;31619;49.008;12.106;2023-04-30T02:55:05;11.00;99.90
45906;DHT22;31619;49.008;12.106;2023-04-30T02:57:31;11.10;99.90
45906;DHT22;31619;49.008;12.106;2023-04-30T02:59:56;11.10;99.90
45906;DHT22;31619;49.008;12.106;2023-04-30T03:02:22;11.10;99.90
45906;DHT22;31619;49.008;12.106;2023-04-30T03:04:48;11.10;99.90
45906;DHT22;31619;49.008;12.106;2023-04-30T03:07:14;11.00;99.90
45906;DHT22;31619;49.008;12.106;2023-04-30T03:09:40;11.00;99.90
45906;DHT22;31619;49.008;12.106;2023-04-30T03:12:06;11.00;99.90
45906;DHT22;31619;49.008;12.106;2023-04-30T03:14:31;11.00;99.90
45906;DHT22;31619;49.008;12.106;2023-04-30T03:16:57;11.00;99.90
45906;DHT22;31619;49.008;12.106;2023-04-30T03:19:22;11.00;99.90
45906;DHT22;31619;49.008;12.106;2023-04-30T03:21:52;11.00;99.90
45906;DHT22;31619;49.008;12.106;2023-04-30T03:24:18;11.00;99.90
45906;DHT22;31619;49.008;12.106;2023-04-30T03:26:44;11.00;99.90
45906;DHT22;31619;49.008;12.106;2023-04-30T03:29:10;11.00;99.90
45906;DHT22;31619;49.008;12.106;2023-04-30T03:31:35;11.00;99.90
45906;DHT22;31619;49.008;12.106;2023-04-30T03:34:01;11.00;99.90
45906;DHT22;31619;49.008;12.106;2023-04-30T03:36:27;11.00;99.90
45906;DHT22;31619;49.008;12.106;2023-04-30T03:38:53;11.00;99.90
45906;DHT22;31619;49.008;12.106;2023-04-30T03:41:18;11.00;99.90
45906;DHT22;31619;49.008;12.106;2023-04-30T03:43:44;11.00;99.90
45906;DHT22;31619;49.008;12.106;2023-04-30T03:46:10;11.00;99.90
45906;DHT22;31619;49.008;12.106;2023-04-30T03:48:36;11.00;99.90
45906;DHT22;31619;49.008;12.106;2023-04-30T03:51:01;10.90;99.90
45906;DHT22;31619;49.008;12.106;2023-04-30T03:53:27;10.90;99.90
45906;DHT22;31619;49.008;12.106;2023-04-30T03:55:53;10.90;99.90
45906;DHT22;31619;49.008;12.106;2023-04-30T03:58:19;10.90;99.90
45906;DHT22;31619;49.008;12.106;2023-04-30T04:00:46;10.90;99.90
45906;DHT22;31619;49.008;12.106;2023-04-30T04:03:13;10.90;99.90
45906;DHT22;31619;49.008;12.106;2023-04-30T04:05:39;10.90;99.90
45906;DHT22;31619;49.008;12.106;2023-04-30T04:08:05;10.90;99.90
45906;DHT22;31619;49.008;12.106;2023-04-30T04:10:34;11.00;99.90
45906;DHT22;31619;49.008;12.106;2023-04-30T04:13:00;10.90;99.90
45906;DHT22;31619;49.008;12.106;2023-04-30T04:15:25;10.90;99.90
45906;DHT22;31619;49.008;12.106;2023-04-30T04:17:51;10.90;99.90
45906;DHT22;31619;49.008;12.106;2023-04-30T04:20:17;10.90;99.90
45906;DHT22;31619;49.008;12.106;2023-04-30T04:22:43;10.90;99.90
45906;DHT22;31619;49.008;12.106;2023-04-30T04:25:09;10.90;99.90
45906;DHT22;31619;49.008;12.106;2023-04-30T04:27:35;11.00;99.90
45906;DHT22;31619;49.008;12.106;2023-04-30T04:30:04;11.00;99.90
45906;DHT22;31619;49.008;12.106;2023-04-30T04:32:29;11.00;99.90
45906;DHT22;31619;49.008;12.106;2023-04-30T04:34:57;11.00;99.90
45906;DHT22;31619;49.008;12.106;2023-04-30T04:37:23;11.10;99.90
45906;DHT22;31619;49.008;12.106;2023-04-30T04:39:48;11.20;99.90
45906;DHT22;31619;49.008;12.106;2023-04-30T04:42:15;11.20;99.90
45906;DHT22;31619;49.008;12.106;2023-04-30T04:44:42;11.20;99.90
45906;DHT22;31619;49.008;12.106;2023-04-30T04:47:08;11.30;99.90
45906;DHT22;31619;49.008;12.106;2023-04-30T04:49:34;11.30;99.90
45906;DHT22;31619;49.008;12.106;2023-04-30T04:52:00;11.40;99.90
45906;DHT22;31619;49.008;12.106;2023-04-30T04:54:26;11.40;99.90
45906;DHT22;31619;49.008;12.106;2023-04-30T04:56:52;11.50;99.90
45906;DHT22;31619;49.008;12.106;2023-04-30T04:59:18;11.50;99.90
45906;DHT22;31619;49.008;12.106;2023-04-30T05:01:43;11.60;99.90
45906;DHT22;31619;49.008;12.106;2023-04-30T05:04:09;11.60;99.90
45906;DHT22;31619;49.008;12.106;2023-04-30T05:06:34;11.70;99.90
45906;DHT22;31619;49.008;12.106;2023-04-30T05:09:00;11.70;99.90
45906;DHT22;31619;49.008;12.106;2023-04-30T05:11:27;11.90;99.90
45906;DHT22;31619;49.008;12.106;2023-04-30T05:13:53;12.10;99.90
45906;DHT22;31619;49.008;12.106;2023-04-30T05:16:18;12.20;99.90
45906;DHT22;31619;49.008;12.106;2023-04-30T05:18:50;12.20;99.90
45906;DHT22;31619;49.008;12.106;2023-04-30T05:21:25;12.30;99.90
45906;DHT22;31619;49.008;12.106;2023-04-30T05:24:03;12.50;99.90
45906;DHT22;31619;49.008;12.106;2023-04-30T05:26:32;12.50;99.90
45906;DHT22;31619;49.008;12.106;2023-04-30T05:32:36;12.50;99.90
45906;DHT22;31619;49.008;12.106;2023-04-30T05:35:02;12.50;99.90
45906;DHT22;31619;49.008;12.106;2023-04-30T05:37:34;12.50;99.90
45906;DHT22;31619;49.008;12.106;2023-04-30T05:40:00;12.50;99.90
45906;DHT22;31619;49.008;12.106;2023-04-30T05:42:26;12.50;99.90
45906;DHT22;31619;49.008;12.106;2023-04-30T05:44:51;12.50;99.90
45906;DHT22;31619;49.008;12.106;2023-04-30T05:47:17;12.50;99.90
45906;DHT22;31619;49.008;12.106;2023-04-30T05:49:43;12.60;99.90
45906;DHT22;31619;49.008;12.106;2023-04-30T05:52:08;12.50;99.90
45906;DHT22;31619;49.008;12.106;2023-04-30T05:54:56;12.40;99.90
45906;DHT22;31619;49.008;12.106;2023-04-30T05:57:22;12.40;99.90
45906;DHT22;31619;49.008;12.106;2023-04-30T05:59:47;12.40;99.90
45906;DHT22;31619;49.008;12.106;2023-04-30T06:02:13;12.50;99.90
45906;DHT22;31619;49.008;12.106;2023-04-30T06:04:39;12.50;99.90
45906;DHT22;31619;49.008;12.106;2023-04-30T06:07:05;12.60;99.90
45906;DHT22;31619;49.008;12.106;2023-04-30T06:09:33;12.70;99.90
45906;DHT22;31619;49.008;12.106;2023-04-30T06:11:59;12.80;99.90
45906;DHT22;31619;49.008;12.106;2023-04-30T06:14:25;12.80;99.90
45906;DHT22;31619;49.008;12.106;2023-04-30T06:16:50;13.00;99.90
45906;DHT22;31619;49.008;12.106;2023-04-30T06:19:16;13.00;99.90
45906;DHT22;31619;49.008;12.106;2023-04-30T06:21:45;13.10;99.90
45906;DHT22;31619;49.008;12.106;2023-04-30T06:24:39;13.20;99.90
45906;DHT22;31619;49.008;12.106;2023-04-30T06:27:05;13.20;99.90
45906;DHT22;31619;49.008;12.106;2023-04-30T06:29:31;13.00;99.90
45906;DHT22;31619;49.008;12.106;2023-04-30T06:31:57;13.00;99.90
45906;DHT22;31619;49.008;12.106;2023-04-30T06:34:22;12.90;99.90
45906;DHT22;31619;49.008;12.106;2023-04-30T06:36:48;13.00;99.90
45906;DHT22;31619;49.008;12.106;2023-04-30T06:39:14;13.00;99.90
45906;DHT22;31619;49.008;12.106;2023-04-30T06:41:40;13.10;99.90
45906;DHT22;31619;49.008;12.106;2023-04-30T06:44:07;13.20;99.90
45906;DHT22;31619;49.008;12.106;2023-04-30T06:46:33;13.40;99.90
45906;DHT22;31619;49.008;12.106;2023-04-30T06:49:04;13.60;99.90
45906;DHT22;31619;49.008;12.106;2023-04-30T06:51:30;13.80;99.90
45906;DHT22;31619;49.008;12.106;2023-04-30T06:53:55;14.00;99.90
45906;DHT22;31619;49.008;12.106;2023-04-30T06:56:21;14.10;99.90
45906;DHT22;31619;49.008;12.106;2023-04-30T06:58:47;14.20;99.90
45906;DHT22;31619;49.008;12.106;2023-04-30T07:01:14;14.30;99.90
45906;DHT22;31619;49.008;12.106;2023-04-30T07:03:40;14.40;99.90
45906;DHT22;31619;49.008;12.106;2023-04-30T07:06:05;14.50;99.90
45906;DHT22;31619;49.008;12.106;2023-04-30T07:08:31;14.60;99.90
45906;DHT22;31619;49.008;12.106;2023-04-30T07:10:57;14.70;99.90
45906;DHT22;31619;49.008;12.106;2023-04-30T07:13:22;14.80;99.90
45906;DHT22;31619;49.008;12.106;2023-04-30T07:15:48;14.90;99.90
45906;DHT22;31619;49.008;12.106;2023-04-30T07:18:14;15.10;99.90
45906;DHT22;31619;49.008;12.106;2023-04-30T07:20:39;15.30;99.90
45906;DHT22;31619;49.008;12.106;2023-04-30T07:23:05;15.50;99.90
45906;DHT22;31619;49.008;12.106;2023-04-30T07:25:34;15.70;99.90
45906;DHT22;31619;49.008;12.106;2023-04-30T07:28:00;15.80;99.90
45906;DHT22;31619;49.008;12.106;2023-04-30T07:30:26;16.00;99.90
45906;DHT22;31619;49.008;12.106;2023-04-30T07:32:52;16.10;99.90
45906;DHT22;31619;49.008;12.106;2023-04-30T07:35:17;16.20;99.90
45906;DHT22;31619;49.008;12.106;2023-04-30T07:37:43;16.40;99.90
45906;DHT22;31619;49.008;12.106;2023-04-30T07:40:09;16.40;99.90
45906;DHT22;31619;49.008;12.106;2023-04-30T07:42:39;16.40;99.90
45906;DHT22;31619;49.008;12.106;2023-04-30T07:45:06;16.60;99.90
45906;DHT22;31619;49.008;12.106;2023-04-30T07:47:32;16.80;99.90
45906;DHT22;31619;49.008;12.106;2023-04-30T07:49:57;17.00;99.90
45906;DHT22;31619;49.008;12.106;2023-04-30T07:52:23;17.30;99.40
45906;DHT22;31619;49.008;12.106;2023-04-30T07:54:49;17.60;98.40
45906;DHT22;31619;49.008;12.106;2023-04-30T07:57:14;17.80;97.40
45906;DHT22;31619;49.008;12.106;2023-04-30T07:59:40;17.70;96.00
45906;DHT22;31619;49.008;12.106;2023-04-30T08:02:07;17.70;96.70
45906;DHT22;31619;49.008;12.106;2023-04-30T08:04:33;17.70;95.90
45906;DHT22;31619;49.008;12.106;2023-04-30T08:06:58;17.90;95.40
45906;DHT22;31619;49.008;12.106;2023-04-30T08:09:26;18.10;93.80
45906;DHT22;31619;49.008;12.106;2023-04-30T08:11:51;18.10;94.00
45906;DHT22;31619;49.008;12.106;2023-04-30T08:14:17;18.20;94.50
45906;DHT22;31619;49.008;12.106;2023-04-30T08:16:43;18.40;93.80
45906;DHT22;31619;49.008;12.106;2023-04-30T08:19:09;18.70;91.50
45906;DHT22;31619;49.008;12.106;2023-04-30T08:21:34;18.90;90.80
45906;DHT22;31619;49.008;12.106;2023-04-30T08:24:00;19.20;89.80
45906;DHT22;31619;49.008;12.106;2023-04-30T08:26:26;19.40;90.00
45906;DHT22;31619;49.008;12.106;2023-04-30T08:28:52;19.70;86.20
45906;DHT22;31619;49.008;12.106;2023-04-30T08:31:17;20.00;86.00
45906;DHT22;31619;49.008;12.106;2023-04-30T08:33:43;20.10;84.00
45906;DHT22;31619;49.008;12.106;2023-04-30T08:36:08;20.20;82.70
45906;DHT22;31619;49.008;12.106;2023-04-30T08:38:34;20.40;82.90
45906;DHT22;31619;49.008;12.106;2023-04-30T08:41:21;20.60;80.00
45906;DHT22;31619;49.008;12.106;2023-04-30T08:43:51;20.80;78.30
45906;DHT22;31619;49.008;12.106;2023-04-30T08:46:19;21.00;78.50
45906;DHT22;31619;49.008;12.106;2023-04-30T08:48:45;21.30;76.60
45906;DHT22;31619;49.008;12.106;2023-04-30T08:51:12;21.50;74.20
45906;DHT22;31619;49.008;12.106;2023-04-30T08:53:39;21.50;74.10
45906;DHT22;31619;49.008;12.106;2023-04-30T08:56:09;21.50;75.30
45906;DHT22;31619;49.008;12.106;2023-04-30T08:58:34;21.50;74.90
45906;DHT22;31619;49.008;12.106;2023-04-30T09:01:00;21.70;72.30
45906;DHT22;31619;49.008;12.106;2023-04-30T09:03:26;21.80;73.10
45906;DHT22;31619;49.008;12.106;2023-04-30T09:05:53;21.80;71.30
45906;DHT22;31619;49.008;12.106;2023-04-30T09:08:43;21.80;70.60
45906;DHT22;31619;49.008;12.106;2023-04-30T09:11:26;21.30;70.00
45906;DHT22;31619;49.008;12.106;2023-04-30T09:13:54;21.00;71.30
45906;DHT22;31619;49.008;12.106;2023-04-30T09:16:22;21.00;71.60
45906;DHT22;31619;49.008;12.106;2023-04-30T09:18:48;21.00;71.60
45906;DHT22;31619;49.008;12.106;2023-04-30T09:21:14;21.00;73.20
45906;DHT22;31619;49.008;12.106;2023-04-30T09:23:54;21.40;71.10
45906;DHT22;31619;49.008;12.106;2023-04-30T09:26:25;21.40;71.00
45906;DHT22;31619;49.008;12.106;2023-04-30T09:28:55;21.40;69.40
45906;DHT22;31619;49.008;12.106;2023-04-30T09:31:24;21.30;68.50
45906;DHT22;31619;49.008;12.106;2023-04-30T09:33:51;21.60;69.70
45906;DHT22;31619;49.008;12.106;2023-04-30T09:36:18;22.10;67.10
45906;DHT22;31619;49.008;12.106;2023-04-30T09:38:43;22.20;67.30
45906;DHT22;31619;49.008;12.106;2023-04-30T09:41:27;21.90;67.20
45906;DHT22;31619;49.008;12.106;2023-04-30T09:43:56;21.60;68.50
45906;DHT22;31619;49.008;12.106;2023-04-30T09:46:30;21.30;67.40
45906;DHT22;31619;49.008;12.106;2023-04-30T09:48:57;21.00;67.40
45906;DHT22;31619;49.008;12.106;2023-04-30T09:51:23;20.80;69.10
45906;DHT22;31619;49.008;12.106;2023-04-30T09:53:50;20.90;69.00
45906;DHT22;31619;49.008;12.106;2023-04-30T09:56:20;21.60;71.20
45906;DHT22;31619;49.008;12.106;2023-04-30T09:58:50;23.10;65.60
45906;DHT22;31619;49.008;12.106;2023-04-30T10:01:17;23.60;63.20
45906;DHT22;31619;49.008;12.106;2023-04-30T10:03:43;23.50;61.50
45906;DHT22;31619;49.008;12.106;2023-04-30T10:06:12;23.20;59.40
45906;DHT22;31619;49.008;12.106;2023-04-30T10:08:42;23.00;60.10
45906;DHT22;31619;49.008;12.106;2023-04-30T10:11:09;23.10;59.50
45906;DHT22;31619;49.008;12.106;2023-04-30T10:16:36;23.50;57.80
45906;DHT22;31619;49.008;12.106;2023-04-30T10:19:18;23.90;57.00
45906;DHT22;31619;49.008;12.106;2023-04-30T10:21:45;23.50;57.80
45906;DHT22;31619;49.008;12.106;2023-04-30T10:24:15;23.20;59.10
45906;DHT22;31619;49.008;12.106;2023-04-30T10:26:44;22.90;58.40
45906;DHT22;31619;49.008;12.106;2023-04-30T10:29:12;22.90;58.70
45906;DHT22;31619;49.008;12.106;2023-04-30T10:31:40;22.90;56.40
45906;DHT22;31619;49.008;12.106;2023-04-30T10:37:28;22.90;56.00
45906;DHT22;31619;49.008;12.106;2023-04-30T10:39:55;22.90;56.50
45906;DHT22;31619;49.008;12.106;2023-04-30T10:42:21;23.00;56.40
45906;DHT22;31619;49.008;12.106;2023-04-30T10:44:47;22.90;56.40
45906;DHT22;31619;49.008;12.106;2023-04-30T10:47:14;22.90;57.90
45906;DHT22;31619;49.008;12.106;2023-04-30T10:49:50;23.20;59.30
45906;DHT22;31619;49.008;12.106;2023-04-30T10:52:26;23.50;58.50
45906;DHT22;31619;49.008;12.106;2023-04-30T10:54:52;23.70;58.90
45906;DHT22;31619;49.008;12.106;2023-04-30T10:57:17;23.90;59.10
45906;DHT22;31619;49.008;12.106;2023-04-30T11:02:43;23.70;57.80
45906;DHT22;31619;49.008;12.106;2023-04-30T11:05:16;23.80;57.70
45906;DHT22;31619;49.008;12.106;2023-04-30T11:07:48;24.30;57.90
45906;DHT22;31619;49.008;12.106;2023-04-30T11:10:15;25.70;56.30
45906;DHT22;31619;49.008;12.106;2023-04-30T11:12:47;27.20;54.40
45906;DHT22;31619;49.008;12.106;2023-04-30T11:15:14;28.60;51.70
45906;DHT22;31619;49.008;12.106;2023-04-30T11:17:43;29.80;49.40
45906;DHT22;31619;49.008;12.106;2023-04-30T11:20:13;30.30;46.60
45906;DHT22;31619;49.008;12.106;2023-04-30T11:22:39;30.50;46.40
45906;DHT22;31619;49.008;12.106;2023-04-30T11:25:08;30.90;46.90
45906;DHT22;31619;49.008;12.106;2023-04-30T11:27:36;31.60;45.70
45906;DHT22;31619;49.008;12.106;2023-04-30T11:30:05;32.10;43.00
45906;DHT22;31619;49.008;12.106;2023-04-30T11:32:36;32.80;40.90
45906;DHT22;31619;49.008;12.106;2023-04-30T11:35:02;33.40;40.20
45906;DHT22;31619;49.008;12.106;2023-04-30T11:37:30;33.80;39.30
45906;DHT22;31619;49.008;12.106;2023-04-30T11:40:00;33.90;40.50
45906;DHT22;31619;49.008;12.106;2023-04-30T11:42:25;34.00;40.80
45906;DHT22;31619;49.008;12.106;2023-04-30T11:44:51;34.50;41.20
45906;DHT22;31619;49.008;12.106;2023-04-30T11:47:16;34.90;38.60
45906;DHT22;31619;49.008;12.106;2023-04-30T11:49:42;34.90;37.70
45906;DHT22;31619;49.008;12.106;2023-04-30T11:52:08;34.90;38.10
45906;DHT22;31619;49.008;12.106;2023-04-30T11:54:37;34.90;37.90
45906;DHT22;31619;49.008;12.106;2023-04-30T11:57:03;34.90;37.50
45906;DHT22;31619;49.008;12.106;2023-04-30T11:59:30;34.80;37.90
45906;DHT22;31619;49.008;12.106;2023-04-30T12:01:57;34.30;37.00
45906;DHT22;31619;49.008;12.106;2023-04-30T12:04:23;33.50;38.20
45906;DHT22;31619;49.008;12.106;2023-04-30T12:06:48;32.60;38.20
45906;DHT22;31619;49.008;12.106;2023-04-30T12:09:14;31.70;39.20
45906;DHT22;31619;49.008;12.106;2023-04-30T12:11:40;32.00;39.40
45906;DHT22;31619;49.008;12.106;2023-04-30T12:14:10;32.70;39.70
45906;DHT22;31619;49.008;12.106;2023-04-30T12:16:41;33.40;39.10
45906;DHT22;31619;49.008;12.106;2023-04-30T12:19:07;33.70;38.90
45906;DHT22;31619;49.008;12.106;2023-04-30T12:21:34;33.60;37.90
45906;DHT22;31619;49.008;12.106;2023-04-30T12:24:00;33.40;38.90
45906;DHT22;31619;49.008;12.106;2023-04-30T12:26:34;33.40;39.20
45906;DHT22;31619;49.008;12.106;2023-04-30T12:29:03;33.20;38.00
45906;DHT22;31619;49.008;12.106;2023-04-30T12:31:31;33.10;38.60
45906;DHT22;31619;49.008;12.106;2023-04-30T12:34:01;33.70;38.90
45906;DHT22;31619;49.008;12.106;2023-04-30T12:36:29;34.60;37.00
45906;DHT22;31619;49.008;12.106;2023-04-30T12:41:39;35.40;36.20
45906;DHT22;31619;49.008;12.106;2023-04-30T12:44:21;35.60;37.00
45906;DHT22;31619;49.008;12.106;2023-04-30T12:46:48;36.20;36.00
45906;DHT22;31619;49.008;12.106;2023-04-30T12:49:32;35.50;34.10
45906;DHT22;31619;49.008;12.106;2023-04-30T12:52:02;33.00;35.80
45906;DHT22;31619;49.008;12.106;2023-04-30T12:54:30;32.10;38.10
45906;DHT22;31619;49.008;12.106;2023-04-30T12:57:01;31.60;39.50
45906;DHT22;31619;49.008;12.106;2023-04-30T12:59:28;31.40;39.00
45906;DHT22;31619;49.008;12.106;2023-04-30T13:01:54;31.60;38.80
45906;DHT22;31619;49.008;12.106;2023-04-30T13:04:29;31.90;38.80
45906;DHT22;31619;49.008;12.106;2023-04-30T13:06:54;32.30;37.40
45906;DHT22;31619;49.008;12.106;2023-04-30T13:09:20;32.90;36.60
45906;DHT22;31619;49.008;12.106;2023-04-30T13:11:46;33.20;37.00
45906;DHT22;31619;49.008;12.106;2023-04-30T13:14:12;32.90;36.70
45906;DHT22;31619;49.008;12.106;2023-04-30T13:16:38;31.60;38.10
45906;DHT22;31619;49.008;12.106;2023-04-30T13:22:22;30.00;40.10
45906;DHT22;31619;49.008;12.106;2023-04-30T13:24:53;29.50;40.90
45906;DHT22;31619;49.008;12.106;2023-04-30T13:27:19;29.40;41.30
45906;DHT22;31619;49.008;12.106;2023-04-30T13:29:44;28.80;41.40
45906;DHT22;31619;49.008;12.106;2023-04-30T13:32:10;28.30;42.10
45906;DHT22;31619;49.008;12.106;2023-04-30T13:34:36;27.90;42.60
45906;DHT22;31619;49.008;12.106;2023-04-30T13:37:02;27.50;43.00
45906;DHT22;31619;49.008;12.106;2023-04-30T13:39:27;27.00;43.90
45906;DHT22;31619;49.008;12.106;2023-04-30T13:41:53;26.70;44.60
45906;DHT22;31619;49.008;12.106;2023-04-30T13:44:19;26.70;45.30
45906;DHT22;31619;49.008;12.106;2023-04-30T13:46:44;28.10;43.60
45906;DHT22;31619;49.008;12.106;2023-04-30T13:49:10;29.60;41.00
45906;DHT22;31619;49.008;12.106;2023-04-30T13:51:35;30.90;40.70
45906;DHT22;31619;49.008;12.106;2023-04-30T13:54:01;31.40;39.70
45906;DHT22;31619;49.008;12.106;2023-04-30T13:56:27;32.40;39.20
45906;DHT22;31619;49.008;12.106;2023-04-30T13:58:53;33.10;38.00
45906;DHT22;31619;49.008;12.106;2023-04-30T14:01:18;34.70;36.60
45906;DHT22;31619;49.008;12.106;2023-04-30T14:03:44;36.50;34.40
45906;DHT22;31619;49.008;12.106;2023-04-30T14:06:11;37.70;32.80
45906;DHT22;31619;49.008;12.106;2023-04-30T14:08:36;37.90;32.50
45906;DHT22;31619;49.008;12.106;2023-04-30T14:11:02;37.80;33.00
45906;DHT22;31619;49.008;12.106;2023-04-30T14:13:28;37.10;32.80
45906;DHT22;31619;49.008;12.106;2023-04-30T14:15:54;35.80;34.10
45906;DHT22;31619;49.008;12.106;2023-04-30T14:18:20;34.10;35.60
45906;DHT22;31619;49.008;12.106;2023-04-30T14:20:47;32.80;36.80
45906;DHT22;31619;49.008;12.106;2023-04-30T14:23:13;31.40;38.80
45906;DHT22;31619;49.008;12.106;2023-04-30T14:25:38;29.90;40.30
45906;DHT22;31619;49.008;12.106;2023-04-30T14:28:04;29.00;41.60
45906;DHT22;31619;49.008;12.106;2023-04-30T14:30:30;28.40;42.70
45906;DHT22;31619;49.008;12.106;2023-04-30T14:32:55;29.20;42.00
45906;DHT22;31619;49.008;12.106;2023-04-30T14:35:21;31.10;39.50
45906;DHT22;31619;49.008;12.106;2023-04-30T14:37:47;33.50;37.30
45906;DHT22;31619;49.008;12.106;2023-04-30T14:40:13;35.80;34.20
45906;DHT22;31619;49.008;12.106;2023-04-30T14:42:39;37.50;33.60
45906;DHT22;31619;49.008;12.106;2023-04-30T14:45:05;38.70;32.40
45906;DHT22;31619;49.008;12.106;2023-04-30T14:47:31;39.40;31.30
45906;DHT22;31619;49.008;12.106;2023-04-30T14:49:57;40.20;30.20
45906;DHT22;31619;49.008;12.106;2023-04-30T14:52:23;39.80;30.20
45906;DHT22;31619;49.008;12.106;2023-04-30T14:54:49;40.30;30.60
45906;DHT22;31619;49.008;12.106;2023-04-30T14:57:16;40.90;29.90
45906;DHT22;31619;49.008;12.106;2023-04-30T14:59:41;40.30;30.70
45906;DHT22;31619;49.008;12.106;2023-04-30T15:02:07;39.10;30.70
45906;DHT22;31619;49.008;12.106;2023-04-30T15:04:33;37.30;31.70
45906;DHT22;31619;49.008;12.106;2023-04-30T15:06:59;34.40;34.80
45906;DHT22;31619;49.008;12.106;2023-04-30T15:09:25;32.90;36.20
45906;DHT22;31619;49.008;12.106;2023-04-30T15:11:51;31.70;37.40
45906;DHT22;31619;49.008;12.106;2023-04-30T15:14:16;30.60;40.80
45906;DHT22;31619;49.008;12.106;2023-04-30T15:16:42;29.60;42.20
45906;DHT22;31619;49.008;12.106;2023-04-30T15:19:07;28.50;41.90
45906;DHT22;31619;49.008;12.106;2023-04-30T15:21:34;27.60;43.60
45906;DHT22;31619;49.008;12.106;2023-04-30T15:23:59;27.70;44.40
45906;DHT22;31619;49.008;12.106;2023-04-30T15:26:27;27.90;43.30
45906;DHT22;31619;49.008;12.106;2023-04-30T15:28:54;27.80;46.00
45906;DHT22;31619;49.008;12.106;2023-04-30T15:31:20;28.20;43.30
45906;DHT22;31619;49.008;12.106;2023-04-30T15:33:46;28.60;43.10
45906;DHT22;31619;49.008;12.106;2023-04-30T15:36:11;29.70;42.30
45906;DHT22;31619;49.008;12.106;2023-04-30T15:38:38;31.40;40.90
45906;DHT22;31619;49.008;12.106;2023-04-30T15:41:04;32.70;39.10
45906;DHT22;31619;49.008;12.106;2023-04-30T15:43:29;33.30;37.60
45906;DHT22;31619;49.008;12.106;2023-04-30T15:45:56;33.70;35.30
45906;DHT22;31619;49.008;12.106;2023-04-30T15:48:22;34.40;34.40